createdAt,value
2017-11-08T00:00:35.329Z,69.48
2017-11-08T00:03:01.267Z,69.43
2017-11-08T00:05:27.210Z,69.13
2017-11-08T00:07:53.161Z,69.20
2017-11-08T00:10:19.110Z,68.64
2017-11-08T00:12:45.049Z,68.67
2017-11-08T00:15:10.999Z,68.54
2017-11-08T00:17:36.933Z,69.22
2017-11-08T00:20:02.872Z,69.85
2017-11-08T00:22:28.823Z,69.29
2017-11-08T00:24:54.789Z,69.74
2017-11-08T00:27:20.732Z,69.69
2017-11-08T00:29:46.677Z,69.25
2017-11-08T00:32:12.647Z,69.80
2017-11-08T00:34:38.580Z,68.85
2017-11-08T00:37:04.529Z,69.33
2017-11-08T00:39:30.495Z,69.26
2017-11-08T00:41:56.425Z,69.31
2017-11-08T00:44:22.363Z,69.64
2017-11-08T00:46:48.316Z,69.06
2017-11-08T00:49:14.259Z,69.10
2017-11-08T00:51:40.191Z,69.07
2017-11-08T00:54:06.147Z,69.22
2017-11-08T00:56:32.099Z,69.12
2017-11-08T00:58:58.136Z,69.25
2017-11-08T01:01:24.067Z,69.30
2017-11-08T01:03:50.018Z,69.63
2017-11-08T01:06:15.955Z,69.78
2017-11-08T01:08:41.902Z,69.46
2017-11-08T01:11:07.831Z,70.84
2017-11-08T01:13:33.764Z,69.69
2017-11-08T01:15:59.687Z,69.70
2017-11-08T01:18:25.619Z,69.54
2017-11-08T01:20:51.567Z,69.41
2017-11-08T01:23:17.505Z,69.72
2017-11-08T01:25:43.489Z,70.07
2017-11-08T01:28:09.431Z,69.65
2017-11-08T01:30:35.398Z,69.99
2017-11-08T01:33:01.331Z,69.17
2017-11-08T01:35:27.269Z,69.02
2017-11-08T01:37:53.220Z,69.34
2017-11-08T01:40:19.184Z,69.27
2017-11-08T01:42:45.141Z,70.20
2017-11-08T01:45:11.157Z,70.74
2017-11-08T01:47:37.094Z,70.53
2017-11-08T01:50:03.064Z,71.37
2017-11-08T01:52:29.015Z,70.51
2017-11-08T01:54:54.969Z,70.42
2017-11-08T01:57:20.910Z,71.19
2017-11-08T01:59:46.853Z,70.38
2017-11-08T02:02:12.815Z,70.26
2017-11-08T02:04:38.809Z,70.39
2017-11-08T02:07:04.731Z,71.81
2017-11-08T02:09:30.663Z,71.22
2017-11-08T02:11:56.607Z,70.81
2017-11-08T02:14:22.527Z,70.03
2017-11-08T02:16:48.475Z,70.34
2017-11-08T02:19:14.412Z,70.42
2017-11-08T02:21:40.360Z,71.38
2017-11-08T02:24:06.303Z,71.81
2017-11-08T02:26:32.257Z,71.05
2017-11-08T02:28:58.192Z,70.79
2017-11-08T02:31:24.142Z,71.22
2017-11-08T02:33:50.107Z,71.87
2017-11-08T02:36:16.053Z,71.84
2017-11-08T02:38:41.998Z,71.56
2017-11-08T02:41:07.986Z,72.23
2017-11-08T02:43:33.941Z,71.71
2017-11-08T02:45:59.889Z,72.09
2017-11-08T02:48:25.829Z,71.53
2017-11-08T02:50:51.775Z,71.43
2017-11-08T02:53:17.754Z,71.12
2017-11-08T02:55:43.687Z,70.62
2017-11-08T02:58:09.601Z,70.66
2017-11-08T03:00:35.570Z,71.17
2017-11-08T03:03:01.497Z,70.77
2017-11-08T03:05:27.425Z,70.75
2017-11-08T03:07:53.359Z,71.11
2017-11-08T03:10:19.295Z,70.87
2017-11-08T03:12:45.253Z,71.28
2017-11-08T03:15:11.200Z,71.14
2017-11-08T03:17:37.141Z,71.43
2017-11-08T03:20:03.112Z,70.49
2017-11-08T03:22:29.063Z,70.23
2017-11-08T03:24:54.997Z,70.64
2017-11-08T03:27:20.936Z,70.39
2017-11-08T03:29:46.919Z,70.09
2017-11-08T03:32:12.867Z,71.19
2017-11-08T03:34:38.811Z,71.05
2017-11-08T03:37:04.795Z,71.72
2017-11-08T03:39:30.755Z,72.13
2017-11-08T03:41:56.699Z,72.01
2017-11-08T03:44:22.644Z,71.83
2017-11-08T03:46:48.603Z,71.52
2017-11-08T03:49:14.573Z,71.83
2017-11-08T03:51:40.508Z,71.45
2017-11-08T03:54:06.442Z,70.66
2017-11-08T03:56:32.371Z,70.72
2017-11-08T03:58:58.307Z,70.74
2017-11-08T04:01:24.328Z,71.04
2017-11-08T04:03:50.267Z,70.85
2017-11-08T04:06:16.209Z,70.58
2017-11-08T04:08:42.175Z,70.25
2017-11-08T04:11:08.129Z,70.38
2017-11-08T04:13:34.088Z,69.62
2017-11-08T04:16:00.021Z,70.08
2017-11-08T04:18:25.971Z,71.43
2017-11-08T04:20:51.953Z,70.62
2017-11-08T04:23:17.885Z,70.00
2017-11-08T04:25:43.913Z,70.01
2017-11-08T04:28:09.895Z,70.16
2017-11-08T04:30:35.827Z,70.04
2017-11-08T04:33:01.787Z,69.69
2017-11-08T04:35:27.793Z,69.66
2017-11-08T04:37:53.733Z,70.09
2017-11-08T04:40:19.711Z,69.96
2017-11-08T04:42:45.639Z,69.62
2017-11-08T04:45:11.579Z,69.65
2017-11-08T04:47:37.519Z,69.75
2017-11-08T04:50:03.457Z,69.43
2017-11-08T04:52:29.422Z,69.18
2017-11-08T04:54:55.411Z,70.02
2017-11-08T04:57:21.385Z,70.18
2017-11-08T04:59:47.317Z,69.10
2017-11-08T05:02:13.273Z,69.69
2017-11-08T05:04:39.243Z,70.57
2017-11-08T05:07:05.397Z,69.73
2017-11-08T05:09:31.341Z,69.81
2017-11-08T05:11:57.304Z,69.68
2017-11-08T05:14:23.263Z,69.65
2017-11-08T05:16:49.200Z,71.12
2017-11-08T05:19:15.155Z,70.97
2017-11-08T05:21:41.115Z,70.34
2017-11-08T05:24:07.175Z,69.79
2017-11-08T05:26:33.111Z,70.07
2017-11-08T05:28:59.103Z,69.75
2017-11-08T05:31:25.159Z,70.03
2017-11-08T05:33:51.099Z,69.72
2017-11-08T05:36:17.067Z,69.77
2017-11-08T05:38:43.021Z,69.63
2017-11-08T05:41:09.011Z,69.71
2017-11-08T05:43:35.038Z,69.19
2017-11-08T05:46:01.098Z,69.17
2017-11-08T05:48:27.031Z,69.44
2017-11-08T05:50:52.975Z,70.18
2017-11-08T05:53:18.913Z,69.74
2017-11-08T05:55:44.856Z,69.56
2017-11-08T05:58:10.822Z,69.42
2017-11-08T06:00:36.761Z,69.19
2017-11-08T06:03:02.717Z,68.99
2017-11-08T06:05:29.419Z,68.88
2017-11-08T06:07:55.381Z,68.83
2017-11-08T06:10:21.321Z,69.62
2017-11-08T06:12:47.274Z,68.96
2017-11-08T06:15:13.226Z,69.45
2017-11-08T06:17:39.157Z,69.20
2017-11-08T06:20:05.087Z,69.19
2017-11-08T06:22:31.083Z,69.71
2017-11-08T06:24:57.052Z,70.26
2017-11-08T06:27:23.064Z,69.72
2017-11-08T06:29:49.099Z,70.67
2017-11-08T06:32:15.055Z,70.65
2017-11-08T06:34:41.011Z,70.31
2017-11-08T06:37:06.975Z,70.52
2017-11-08T06:39:32.898Z,69.89
2017-11-08T06:41:58.846Z,69.74
2017-11-08T06:44:24.802Z,70.00
2017-11-08T06:46:50.793Z,70.34
2017-11-08T06:49:16.769Z,69.48
2017-11-08T06:51:42.734Z,70.03
2017-11-08T06:54:08.755Z,69.34
2017-11-08T06:56:34.729Z,69.45
2017-11-08T06:59:00.685Z,69.81
2017-11-08T07:01:26.913Z,70.61
2017-11-08T07:03:52.861Z,70.82
2017-11-08T07:06:18.783Z,70.83
2017-11-08T07:08:44.795Z,70.96
2017-11-08T07:11:10.753Z,70.86
2017-11-08T07:13:36.717Z,70.73
2017-11-08T07:16:02.659Z,70.36
2017-11-08T07:18:28.636Z,69.81
2017-11-08T07:20:54.568Z,69.80
2017-11-08T07:23:20.517Z,70.01
2017-11-08T07:25:46.467Z,69.75
2017-11-08T07:28:12.403Z,70.19
2017-11-08T07:30:38.350Z,70.22
2017-11-08T07:33:04.295Z,70.02
2017-11-08T07:35:30.254Z,70.49
2017-11-08T07:37:56.203Z,70.01
2017-11-08T07:40:22.173Z,70.06
2017-11-08T07:42:48.131Z,69.47
2017-11-08T07:45:14.106Z,69.57
2017-11-08T07:47:40.111Z,69.77
2017-11-08T07:50:06.067Z,68.76
2017-11-08T07:52:32.015Z,68.54
2017-11-08T07:54:57.960Z,68.68
2017-11-08T07:57:24.002Z,68.72
2017-11-08T07:59:49.966Z,69.45
2017-11-08T08:02:15.947Z,69.40
2017-11-08T08:04:41.906Z,69.07
2017-11-08T08:07:07.844Z,69.04
2017-11-08T08:09:33.782Z,68.90
2017-11-08T08:11:59.721Z,68.35
2017-11-08T08:14:25.667Z,68.43
2017-11-08T08:16:51.615Z,68.34
2017-11-08T08:19:17.629Z,68.37
2017-11-08T08:21:43.571Z,68.62
2017-11-08T08:24:09.557Z,67.81
2017-11-08T08:26:35.513Z,67.90
2017-11-08T08:29:01.453Z,67.04
2017-11-08T08:31:27.438Z,67.28
2017-11-08T08:33:53.399Z,66.94
2017-11-08T08:36:19.363Z,67.38
2017-11-08T08:38:45.355Z,67.61
2017-11-08T08:41:11.353Z,67.18
2017-11-08T08:43:37.284Z,66.76
2017-11-08T08:46:03.233Z,67.35
2017-11-08T08:48:29.199Z,67.24
2017-11-08T08:50:55.151Z,67.53
2017-11-08T08:53:21.099Z,67.84
2017-11-08T08:55:47.050Z,67.67
2017-11-08T08:58:13.002Z,67.96
2017-11-08T09:00:38.949Z,67.89
2017-11-08T09:03:04.901Z,67.91
2017-11-08T09:05:30.864Z,67.56
2017-11-08T09:07:56.840Z,67.99
2017-11-08T09:10:22.806Z,67.56
2017-11-08T09:12:48.771Z,67.13
2017-11-08T09:15:14.727Z,67.01
2017-11-08T09:17:40.675Z,66.96
2017-11-08T09:20:06.613Z,67.09
2017-11-08T09:22:32.614Z,67.58
2017-11-08T09:24:58.749Z,67.28
2017-11-08T09:27:24.722Z,67.07
2017-11-08T09:29:50.709Z,66.62
2017-11-08T09:32:16.665Z,66.72
2017-11-08T09:34:42.627Z,66.88
2017-11-08T09:37:08.581Z,67.05
2017-11-08T09:39:34.514Z,66.85
2017-11-08T09:42:00.451Z,66.79
2017-11-08T09:44:26.415Z,66.90
2017-11-08T09:46:52.396Z,66.96
2017-11-08T09:49:18.345Z,67.04
2017-11-08T09:51:44.325Z,66.78
2017-11-08T09:54:10.279Z,66.93
2017-11-08T09:56:36.233Z,66.81
2017-11-08T09:59:02.188Z,66.60
2017-11-08T10:01:28.135Z,66.45
2017-11-08T10:03:54.121Z,66.52
2017-11-08T10:06:20.103Z,66.44
2017-11-08T10:08:46.043Z,66.21
2017-11-08T10:11:12.009Z,66.07
2017-11-08T10:13:38.038Z,65.93
2017-11-08T10:16:03.953Z,65.68
2017-11-08T10:18:29.959Z,66.20
2017-11-08T10:20:55.903Z,65.84
2017-11-08T10:23:21.827Z,65.67
2017-11-08T10:25:47.782Z,65.50
2017-11-08T10:28:13.740Z,65.64
2017-11-08T10:30:39.691Z,66.04
2017-11-08T10:33:05.633Z,65.91
2017-11-08T10:35:31.577Z,65.99
2017-11-08T10:37:57.579Z,66.04
2017-11-08T10:40:23.559Z,66.29
2017-11-08T10:42:49.486Z,66.40
2017-11-08T10:45:15.479Z,66.05
2017-11-08T10:47:41.439Z,66.38
2017-11-08T10:50:07.397Z,66.84
2017-11-08T10:52:33.359Z,66.42
2017-11-08T10:54:59.327Z,67.27
2017-11-08T10:57:25.338Z,67.10
2017-11-08T10:59:51.318Z,66.61
2017-11-08T11:02:17.258Z,66.15
2017-11-08T11:04:43.231Z,65.38
2017-11-08T11:07:09.189Z,65.36
2017-11-08T11:09:35.151Z,65.48
2017-11-08T11:12:01.098Z,65.25
2017-11-08T11:14:27.045Z,65.70
2017-11-08T11:16:53.070Z,66.12
2017-11-08T11:19:19.045Z,66.67
2017-11-08T11:21:45.015Z,67.06
2017-11-08T11:24:10.963Z,67.54
2017-11-08T11:26:36.957Z,67.49
2017-11-08T11:29:02.950Z,67.81
2017-11-08T11:31:28.915Z,67.69
2017-11-08T11:33:54.911Z,67.89
2017-11-08T11:36:20.870Z,67.77
2017-11-08T11:38:46.857Z,67.89
2017-11-08T11:41:12.830Z,67.84
2017-11-08T11:43:38.850Z,68.06
2017-11-08T11:46:04.838Z,67.75
2017-11-08T11:48:30.828Z,67.93
2017-11-08T11:50:56.780Z,68.11
2017-11-08T11:53:22.729Z,68.36
2017-11-08T11:55:48.664Z,68.28
2017-11-08T11:58:14.605Z,68.58
2017-11-08T12:00:40.578Z,68.67
2017-11-08T12:03:06.603Z,68.73
2017-11-08T12:05:35.805Z,69.08
2017-11-08T12:08:02.005Z,69.24
2017-11-08T12:10:27.964Z,69.57
2017-11-08T12:12:53.912Z,69.95
2017-11-08T12:15:19.916Z,69.87
2017-11-08T12:17:45.909Z,69.67
2017-11-08T12:20:11.869Z,69.76
2017-11-08T12:22:37.851Z,70.08
2017-11-08T12:25:03.826Z,70.08
2017-11-08T12:27:29.857Z,70.56
2017-11-08T12:29:55.881Z,70.85
2017-11-08T12:32:21.928Z,70.98
2017-11-08T12:34:47.890Z,71.01
2017-11-08T12:37:13.909Z,71.07
2017-11-08T12:39:39.883Z,70.84
2017-11-08T12:42:05.887Z,71.01
2017-11-08T12:44:31.838Z,71.27
2017-11-08T12:46:57.820Z,71.18
2017-11-08T12:49:23.785Z,71.10
2017-11-08T12:51:49.743Z,71.12
2017-11-08T12:54:15.725Z,71.17
2017-11-08T12:56:41.772Z,71.56
2017-11-08T12:59:07.764Z,71.33
2017-11-08T13:01:33.724Z,71.60
2017-11-08T13:03:59.684Z,71.59
2017-11-08T13:06:26.172Z,71.72
2017-11-08T13:08:52.126Z,71.92
2017-11-08T13:11:18.147Z,72.00
2017-11-08T13:13:44.147Z,72.22
2017-11-08T13:16:10.208Z,72.16
2017-11-08T13:18:36.151Z,72.01
2017-11-08T13:21:02.143Z,72.53
2017-11-08T13:23:28.149Z,72.10
2017-11-08T13:25:54.157Z,72.01
2017-11-08T13:28:20.126Z,71.95
2017-11-08T13:30:46.072Z,71.71
2017-11-08T13:33:12.066Z,71.59
2017-11-08T13:35:38.023Z,71.21
2017-11-08T13:38:03.998Z,71.17
2017-11-08T13:40:29.994Z,71.17
2017-11-08T13:42:55.952Z,71.51
2017-11-08T13:45:21.902Z,71.14
2017-11-08T13:47:47.900Z,71.05
2017-11-08T13:50:13.839Z,70.63
2017-11-08T13:52:39.821Z,70.71
2017-11-08T13:55:05.746Z,70.89
2017-11-08T13:57:31.711Z,70.51
2017-11-08T13:59:57.670Z,70.50
2017-11-08T14:02:23.700Z,70.11
2017-11-08T14:04:49.727Z,70.21
2017-11-08T14:07:15.721Z,69.98
2017-11-08T14:09:41.681Z,69.85
2017-11-08T14:12:07.678Z,69.69
2017-11-08T14:14:33.709Z,70.18
2017-11-08T14:16:59.659Z,70.32
2017-11-08T14:19:25.666Z,69.96
2017-11-08T14:21:51.656Z,69.94
2017-11-08T14:24:17.617Z,69.50
2017-11-08T14:26:43.622Z,69.55
2017-11-08T14:29:09.618Z,69.67
2017-11-08T14:31:35.562Z,69.57
2017-11-08T14:34:01.524Z,69.30
2017-11-08T14:36:27.509Z,69.17
2017-11-08T14:38:53.510Z,68.91
2017-11-08T14:41:19.557Z,68.91
2017-11-08T14:43:45.496Z,69.15
2017-11-08T14:46:11.467Z,69.20
2017-11-08T14:48:37.480Z,69.46
2017-11-08T14:51:03.480Z,69.25
2017-11-08T14:53:29.652Z,69.15
2017-11-08T14:55:55.606Z,69.13
2017-11-08T14:58:21.581Z,67.69
2017-11-08T15:00:47.526Z,67.66
2017-11-08T15:03:13.496Z,66.92
2017-11-08T15:05:39.505Z,66.79
2017-11-08T15:08:05.443Z,66.88
2017-11-08T15:10:31.418Z,66.73
2017-11-08T15:12:57.368Z,66.99
2017-11-08T15:15:23.353Z,66.73
2017-11-08T15:17:49.310Z,66.52
2017-11-08T15:20:15.244Z,66.44
2017-11-08T15:22:41.240Z,66.61
2017-11-08T15:25:07.191Z,66.34
2017-11-08T15:27:33.192Z,66.23
2017-11-08T15:29:59.159Z,66.27
2017-11-08T15:32:25.141Z,66.62
2017-11-08T15:34:51.157Z,67.12
2017-11-08T15:37:17.109Z,66.86
2017-11-08T15:39:43.038Z,66.68
2017-11-08T15:42:08.997Z,66.84
2017-11-08T15:44:34.941Z,67.15
2017-11-08T15:47:00.895Z,67.04
2017-11-08T15:49:26.831Z,66.45
2017-11-08T15:51:52.809Z,66.60
2017-11-08T15:54:18.795Z,66.54
2017-11-08T15:56:44.841Z,66.70
2017-11-08T15:59:10.833Z,66.76
2017-11-08T16:01:36.849Z,66.76
2017-11-08T16:04:02.823Z,66.54
2017-11-08T16:06:28.826Z,66.84
2017-11-08T16:08:54.765Z,67.04
2017-11-08T16:11:20.703Z,67.81
2017-11-08T16:13:46.663Z,67.11
2017-11-08T16:16:12.643Z,67.62
2017-11-08T16:18:38.600Z,67.72
2017-11-08T16:21:05.457Z,67.43
2017-11-08T16:23:31.414Z,67.64
2017-11-08T16:25:57.538Z,67.22
2017-11-08T16:28:23.527Z,66.76
2017-11-08T16:30:49.470Z,67.07
2017-11-08T16:33:15.431Z,67.92
2017-11-08T16:35:41.384Z,67.74
2017-11-08T16:38:07.404Z,67.35
2017-11-08T16:40:33.360Z,67.06
2017-11-08T16:42:59.311Z,67.28
2017-11-08T16:45:25.242Z,67.82
2017-11-08T16:47:51.194Z,68.29
2017-11-08T16:50:17.197Z,67.26
2017-11-08T16:52:43.182Z,67.88
2017-11-08T16:55:09.184Z,67.66
2017-11-08T16:57:36.045Z,67.80
2017-11-08T17:00:01.996Z,68.04
2017-11-08T17:02:27.947Z,68.51
2017-11-08T17:04:53.918Z,68.29
2017-11-08T17:07:20.096Z,68.05
2017-11-08T17:09:46.074Z,67.84
2017-11-08T17:12:14.136Z,67.72
2017-11-08T17:14:40.113Z,67.82
2017-11-08T17:17:06.089Z,68.33
2017-11-08T17:19:34.156Z,68.21
2017-11-08T17:22:00.102Z,68.12
2017-11-08T17:24:26.061Z,67.89
2017-11-08T17:26:52.023Z,67.77
2017-11-08T17:29:18.001Z,67.74
2017-11-08T17:31:43.968Z,68.01
2017-11-08T17:34:09.948Z,67.59
2017-11-08T17:36:36.528Z,67.72
2017-11-08T17:39:02.484Z,67.85
2017-11-08T17:41:28.435Z,67.73
2017-11-08T17:43:54.453Z,67.50
2017-11-08T17:46:20.384Z,67.84
2017-11-08T17:48:46.333Z,68.15
2017-11-08T17:51:12.285Z,68.01
2017-11-08T17:56:09.869Z,67.87
2017-11-08T17:58:35.922Z,68.76
2017-11-08T18:01:01.863Z,68.35
2017-11-08T18:03:27.866Z,68.68
2017-11-08T18:05:54.920Z,68.92
2017-11-08T18:08:20.917Z,68.58
2017-11-08T18:10:46.900Z,67.72
2017-11-08T18:13:12.916Z,67.88
2017-11-08T18:15:38.905Z,67.69
2017-11-08T18:18:04.886Z,67.05
2017-11-08T18:20:30.824Z,67.70
2017-11-08T18:22:56.781Z,67.49
2017-11-08T18:25:22.768Z,68.18
2017-11-08T18:27:48.708Z,67.85
2017-11-08T18:30:14.650Z,67.98
2017-11-08T18:35:15.091Z,68.02
2017-11-08T18:37:41.164Z,68.05
2017-11-08T18:40:07.115Z,68.86
2017-11-08T18:42:33.061Z,68.55
2017-11-08T18:44:59.016Z,68.62
2017-11-08T18:47:24.973Z,67.79
2017-11-08T18:49:50.967Z,67.59
2017-11-08T18:52:16.922Z,67.79
2017-11-08T18:54:42.921Z,67.13
2017-11-08T18:57:09.111Z,66.98
2017-11-08T18:59:35.057Z,67.52
2017-11-08T19:02:01.030Z,68.41
2017-11-08T19:04:26.969Z,67.79
2017-11-08T19:06:52.943Z,67.84
2017-11-08T19:09:18.947Z,67.93
2017-11-08T19:11:44.902Z,67.92
2017-11-08T19:14:10.844Z,67.93
2017-11-08T19:16:36.786Z,67.60
2017-11-08T19:19:02.718Z,67.39
2017-11-08T19:21:29.597Z,68.19
2017-11-08T19:23:55.613Z,68.17
2017-11-08T19:26:21.553Z,68.11
2017-11-08T19:28:47.557Z,68.20
2017-11-08T19:31:13.518Z,68.02
2017-11-08T19:33:39.522Z,68.15
2017-11-08T19:36:05.481Z,67.48
2017-11-08T19:38:31.462Z,68.02
2017-11-08T19:40:57.449Z,68.45
2017-11-08T19:43:23.408Z,68.15
2017-11-08T19:45:49.392Z,68.18
2017-11-08T19:48:15.341Z,68.33
2017-11-08T19:50:41.335Z,68.55
2017-11-08T19:53:07.808Z,68.18
2017-11-08T19:55:33.926Z,68.10
2017-11-08T19:57:59.908Z,69.92
2017-11-08T20:00:25.931Z,69.48
2017-11-08T20:02:51.870Z,69.60
2017-11-08T20:05:17.841Z,68.96
2017-11-08T20:07:43.796Z,69.22
2017-11-08T20:10:09.795Z,69.11
2017-11-08T20:12:35.877Z,69.46
2017-11-08T20:15:01.882Z,68.48
2017-11-08T20:17:27.842Z,66.94
2017-11-08T20:19:53.814Z,67.22
2017-11-08T20:22:19.794Z,67.47
2017-11-08T20:24:45.756Z,67.15
2017-11-08T20:27:11.725Z,68.84
2017-11-08T20:29:37.770Z,68.25
2017-11-08T20:32:03.723Z,68.03
2017-11-08T20:34:29.671Z,67.41
2017-11-08T20:36:55.716Z,67.61
2017-11-08T20:39:21.699Z,68.01
2017-11-08T20:41:47.658Z,68.92
2017-11-08T20:44:13.611Z,68.64
2017-11-08T20:46:39.576Z,67.90
2017-11-08T20:49:05.634Z,67.56
2017-11-08T20:51:31.581Z,67.65
2017-11-08T20:53:57.552Z,67.35
2017-11-08T20:56:24.588Z,67.10
2017-11-08T20:58:50.646Z,67.64
2017-11-08T21:01:16.729Z,67.16
2017-11-08T21:03:44.798Z,67.26
2017-11-08T21:06:12.823Z,67.27
2017-11-08T21:08:40.445Z,67.47
2017-11-08T21:11:07.289Z,66.97
2017-11-08T21:13:33.515Z,67.23
2017-11-08T21:16:00.694Z,67.55
2017-11-08T21:18:26.657Z,67.54
2017-11-08T21:20:52.619Z,67.16
2017-11-08T21:23:18.689Z,66.73
2017-11-08T21:25:44.701Z,66.84
2017-11-08T21:28:10.663Z,66.77
2017-11-08T21:30:37.007Z,66.70
2017-11-08T21:33:03.449Z,67.11
2017-11-08T21:42:16.815Z,67.20
2017-11-08T21:44:42.939Z,67.54
2017-11-08T21:47:08.918Z,67.15
2017-11-08T21:49:34.867Z,67.07
2017-11-08T21:52:00.809Z,67.54
2017-11-08T21:54:26.765Z,67.44
2017-11-08T21:56:52.708Z,67.52
2017-11-08T21:59:18.670Z,68.17
2017-11-08T22:01:44.722Z,67.77
2017-11-08T22:04:10.683Z,67.89
2017-11-08T22:06:36.654Z,67.82
2017-11-08T22:09:02.605Z,67.31
2017-11-08T22:11:28.553Z,67.83
2017-11-08T22:13:54.501Z,67.39
2017-11-08T22:16:20.453Z,67.84
2017-11-08T22:18:46.422Z,67.39
2017-11-08T22:21:14.380Z,67.32
2017-11-08T22:23:40.384Z,67.25
2017-11-08T22:26:06.349Z,67.05
2017-11-08T22:28:32.346Z,67.54
2017-11-08T22:30:58.337Z,67.71
2017-11-08T22:33:24.287Z,67.13
2017-11-08T22:35:50.241Z,67.24
2017-11-08T22:38:16.205Z,67.33
2017-11-08T22:40:42.155Z,67.72
2017-11-08T22:43:08.135Z,67.79
2017-11-08T22:45:34.097Z,67.36
2017-11-08T22:48:00.053Z,67.35
2017-11-08T22:50:26.018Z,67.62
2017-11-08T22:52:51.957Z,67.90
2017-11-08T22:55:17.904Z,67.00
2017-11-08T22:57:43.883Z,67.06
2017-11-08T23:00:09.841Z,67.16
2017-11-08T23:02:35.806Z,67.11
2017-11-08T23:05:01.771Z,67.62
2017-11-08T23:07:27.759Z,67.67
2017-11-08T23:09:53.745Z,67.18
2017-11-08T23:12:20.842Z,67.43
2017-11-08T23:14:47.673Z,67.99
2017-11-08T23:17:13.619Z,67.83
2017-11-08T23:19:39.543Z,67.64
2017-11-08T23:22:05.501Z,67.59
2017-11-08T23:24:31.447Z,67.63
2017-11-08T23:26:57.424Z,67.40
2017-11-08T23:29:23.367Z,67.15
2017-11-08T23:31:49.318Z,67.36
2017-11-08T23:34:15.291Z,67.73
2017-11-08T23:36:41.243Z,68.04
2017-11-08T23:39:07.194Z,68.39
2017-11-08T23:41:33.237Z,68.59
2017-11-08T23:43:59.269Z,68.76
2017-11-08T23:46:25.236Z,68.02
2017-11-08T23:48:51.211Z,68.26
2017-11-08T23:51:17.157Z,68.16
2017-11-08T23:53:43.157Z,67.79
2017-11-08T23:56:09.096Z,67.54
2017-11-08T23:58:35.153Z,67.73
